createdAt,value
2017-01-20T00:00:11.293Z,0
2017-01-20T00:01:22.682Z,0
2017-01-20T00:02:34.073Z,0
2017-01-20T00:03:45.478Z,0
2017-01-20T00:04:56.915Z,0
2017-01-20T00:06:08.320Z,0
2017-01-20T00:07:19.713Z,0
2017-01-20T00:08:31.317Z,0
2017-01-20T00:09:42.720Z,0
2017-01-20T00:10:54.152Z,0
2017-01-20T00:12:05.545Z,0
2017-01-20T00:13:16.943Z,0
2017-01-20T00:14:28.538Z,0
2017-01-20T00:15:39.942Z,0
2017-01-20T00:16:51.589Z,0
2017-01-20T00:18:03.000Z,0
2017-01-20T00:19:14.396Z,0
2017-01-20T00:20:25.786Z,0
2017-01-20T00:21:37.177Z,0
2017-01-20T00:22:48.819Z,0
2017-01-20T00:24:00.210Z,0
2017-01-20T00:25:11.604Z,0
2017-01-20T00:26:23.002Z,0
2017-01-20T00:27:34.392Z,0
2017-01-20T00:28:45.830Z,0
2017-01-20T00:29:57.432Z,0
2017-01-20T00:31:08.825Z,0
2017-01-20T00:32:20.219Z,0
2017-01-20T00:33:31.610Z,0
2017-01-20T00:34:43.050Z,0
2017-01-20T00:35:54.649Z,0
2017-01-20T00:37:06.250Z,0
2017-01-20T00:38:17.646Z,0
2017-01-20T00:39:29.243Z,0
2017-01-20T00:40:40.694Z,0
2017-01-20T00:41:52.093Z,0
2017-01-20T00:43:03.489Z,0
2017-01-20T00:44:14.878Z,0
2017-01-20T00:45:26.266Z,0
2017-01-20T00:46:37.709Z,0
2017-01-20T00:47:49.101Z,0
2017-01-20T00:49:00.492Z,0
2017-01-20T00:50:11.888Z,0
2017-01-20T00:51:23.286Z,0
2017-01-20T00:52:34.733Z,0
2017-01-20T00:53:46.125Z,0
2017-01-20T00:54:57.555Z,0
2017-01-20T00:56:08.953Z,0
2017-01-20T00:57:20.550Z,0
2017-01-20T00:58:31.989Z,0
2017-01-20T00:59:43.379Z,0
2017-01-20T01:00:54.780Z,0
2017-01-20T01:02:06.176Z,0
2017-01-20T01:03:17.562Z,0
2017-01-20T01:04:28.994Z,0
2017-01-20T01:05:40.397Z,0
2017-01-20T01:06:51.788Z,0
2017-01-20T01:08:03.179Z,0
2017-01-20T01:09:14.572Z,0
2017-01-20T01:10:26.015Z,0
2017-01-20T01:11:37.411Z,0
2017-01-20T01:12:48.808Z,0
2017-01-20T01:14:00.200Z,0
2017-01-20T01:15:11.594Z,0
2017-01-20T01:16:23.039Z,0
2017-01-20T01:17:34.433Z,0
2017-01-20T01:18:45.826Z,0
2017-01-20T01:19:57.217Z,0
2017-01-20T01:21:08.605Z,0
2017-01-20T01:22:20.251Z,0
2017-01-20T01:23:31.838Z,0
2017-01-20T01:24:43.434Z,0
2017-01-20T01:25:55.040Z,0
2017-01-20T01:27:06.432Z,0
2017-01-20T01:28:18.098Z,0
2017-01-20T01:29:29.491Z,0
2017-01-20T01:30:40.886Z,0
2017-01-20T01:31:52.281Z,0
2017-01-20T01:33:03.675Z,0
2017-01-20T01:34:15.121Z,0
2017-01-20T01:35:26.517Z,0
2017-01-20T01:36:37.914Z,0
2017-01-20T01:37:49.309Z,0
2017-01-20T01:39:00.708Z,0
2017-01-20T01:40:12.157Z,0
2017-01-20T01:41:23.749Z,0
2017-01-20T01:42:35.135Z,0
2017-01-20T01:43:46.523Z,0
2017-01-20T01:44:58.119Z,0
2017-01-20T01:46:09.766Z,0
2017-01-20T01:47:21.161Z,0
2017-01-20T01:48:32.556Z,0
2017-01-20T01:49:43.944Z,0
2017-01-20T01:50:55.344Z,0
2017-01-20T01:52:06.785Z,0
2017-01-20T01:53:18.174Z,0
2017-01-20T01:54:29.563Z,0
2017-01-20T01:55:40.947Z,0
2017-01-20T01:56:52.748Z,0
2017-01-20T01:58:04.191Z,0
2017-01-20T01:59:15.589Z,0
2017-01-20T02:00:26.984Z,0
2017-01-20T02:01:38.388Z,0
2017-01-20T02:02:49.780Z,0
2017-01-20T02:04:01.225Z,0
2017-01-20T02:05:12.618Z,0
2017-01-20T02:06:24.005Z,0
2017-01-20T02:07:35.400Z,0
2017-01-20T02:08:46.792Z,0
2017-01-20T02:09:58.444Z,0
2017-01-20T02:11:09.838Z,0
2017-01-20T02:12:21.227Z,0
2017-01-20T02:13:32.818Z,0
2017-01-20T02:14:44.212Z,0
2017-01-20T02:15:55.685Z,0
2017-01-20T02:17:07.076Z,0
2017-01-20T02:18:18.486Z,0
2017-01-20T02:19:30.085Z,0
2017-01-20T02:20:41.478Z,0
2017-01-20T02:21:52.918Z,0
2017-01-20T02:23:04.314Z,0
2017-01-20T02:24:15.707Z,0
2017-01-20T02:25:27.095Z,0
2017-01-20T02:26:38.491Z,0
2017-01-20T02:27:49.921Z,0
2017-01-20T02:29:01.319Z,0
2017-01-20T02:30:12.716Z,0
2017-01-20T02:31:24.113Z,0
2017-01-20T02:32:35.511Z,0
2017-01-20T02:33:47.152Z,0
2017-01-20T02:34:58.567Z,0
2017-01-20T02:36:10.160Z,0
2017-01-20T02:37:22.419Z,0
2017-01-20T02:38:32.949Z,0
2017-01-20T02:39:44.587Z,0
2017-01-20T02:40:55.982Z,0
2017-01-20T02:42:07.573Z,0
2017-01-20T02:43:18.975Z,0
2017-01-20T02:44:30.578Z,0
2017-01-20T02:45:42.023Z,0
2017-01-20T02:46:53.418Z,0
2017-01-20T02:48:05.008Z,0
2017-01-20T02:49:16.400Z,0
2017-01-20T02:50:27.787Z,0
2017-01-20T02:51:39.223Z,0
2017-01-20T02:52:50.609Z,0
2017-01-20T02:54:01.999Z,0
2017-01-20T02:55:13.393Z,0
2017-01-20T02:56:24.811Z,0
2017-01-20T02:57:36.252Z,0
2017-01-20T02:58:47.646Z,0
2017-01-20T02:59:59.044Z,0
2017-01-20T03:01:10.437Z,0
2017-01-20T03:02:21.836Z,0
2017-01-20T03:03:33.479Z,0
2017-01-20T03:04:44.868Z,0
2017-01-20T03:05:56.261Z,0
2017-01-20T03:07:07.860Z,0
2017-01-20T03:08:19.251Z,0
2017-01-20T03:09:30.687Z,0
2017-01-20T03:10:42.075Z,0
2017-01-20T03:11:53.478Z,0
2017-01-20T03:13:04.881Z,0
2017-01-20T03:14:16.274Z,0
2017-01-20T03:15:27.920Z,0
2017-01-20T03:16:39.314Z,0
2017-01-20T03:17:50.709Z,0
2017-01-20T03:19:02.088Z,0
2017-01-20T03:20:13.676Z,0
2017-01-20T03:21:25.114Z,0
2017-01-20T03:22:36.499Z,0
2017-01-20T03:23:47.892Z,0
2017-01-20T03:24:59.288Z,0
2017-01-20T03:26:10.683Z,0
2017-01-20T03:27:22.140Z,0
2017-01-20T03:28:33.760Z,0
2017-01-20T03:29:45.156Z,0
2017-01-20T03:30:56.947Z,0
2017-01-20T03:32:08.342Z,0
2017-01-20T03:33:19.806Z,0
2017-01-20T03:34:31.196Z,0
2017-01-20T03:35:42.582Z,0
2017-01-20T03:36:53.975Z,0
2017-01-20T03:38:05.365Z,0
2017-01-20T03:39:16.809Z,0
2017-01-20T03:40:28.204Z,0
2017-01-20T03:41:39.598Z,0
2017-01-20T03:42:50.983Z,0
2017-01-20T03:44:02.580Z,0
2017-01-20T03:45:14.225Z,0
2017-01-20T03:46:25.817Z,0
2017-01-20T03:47:37.205Z,0
2017-01-20T03:48:48.593Z,0
2017-01-20T03:49:59.992Z,0
2017-01-20T03:51:11.440Z,0
2017-01-20T03:52:22.831Z,0
2017-01-20T03:53:34.223Z,0
2017-01-20T03:54:45.819Z,0
2017-01-20T03:55:57.405Z,0
2017-01-20T03:57:08.851Z,0
2017-01-20T03:58:20.240Z,0
2017-01-20T03:59:31.828Z,0
2017-01-20T04:00:43.217Z,0
2017-01-20T04:01:54.808Z,0
2017-01-20T04:03:06.255Z,0
2017-01-20T04:04:17.666Z,0
2017-01-20T04:05:29.066Z,0
2017-01-20T04:06:40.664Z,0
2017-01-20T04:07:52.063Z,0
2017-01-20T04:09:03.722Z,0
2017-01-20T04:10:15.112Z,0
2017-01-20T04:11:26.512Z,0
2017-01-20T04:12:37.914Z,0
2017-01-20T04:13:49.312Z,0
2017-01-20T04:15:00.763Z,0
2017-01-20T04:16:12.154Z,0
2017-01-20T04:17:23.558Z,0
2017-01-20T04:18:34.953Z,0
2017-01-20T04:19:46.357Z,0
2017-01-20T04:20:57.805Z,0
2017-01-20T04:22:09.206Z,0
2017-01-20T04:23:20.801Z,0
2017-01-20T04:24:32.192Z,0
2017-01-20T04:25:43.587Z,0
2017-01-20T04:26:55.028Z,0
2017-01-20T04:28:06.443Z,0
2017-01-20T04:29:17.864Z,0
2017-01-20T04:30:29.248Z,0
2017-01-20T04:31:40.637Z,0
2017-01-20T04:32:52.479Z,0
2017-01-20T04:34:03.878Z,0
2017-01-20T04:35:15.268Z,0
2017-01-20T04:36:26.656Z,0
2017-01-20T04:37:38.074Z,0
2017-01-20T04:38:49.509Z,0
2017-01-20T04:40:00.899Z,0
2017-01-20T04:41:12.296Z,0
2017-01-20T04:42:23.695Z,0
2017-01-20T04:43:35.095Z,0
2017-01-20T04:44:46.537Z,0
2017-01-20T04:45:57.927Z,0
2017-01-20T04:47:09.317Z,0
2017-01-20T04:48:20.718Z,0
2017-01-20T04:49:32.112Z,0
2017-01-20T04:50:43.559Z,0
2017-01-20T04:51:54.949Z,0
2017-01-20T04:53:06.346Z,0
2017-01-20T04:54:17.737Z,0
2017-01-20T04:55:29.129Z,0
2017-01-20T04:56:40.594Z,0
2017-01-20T04:57:51.996Z,0
2017-01-20T04:59:03.590Z,0
2017-01-20T05:00:14.984Z,0
2017-01-20T05:01:26.374Z,0
2017-01-20T05:02:37.814Z,0
2017-01-20T05:03:49.198Z,0
2017-01-20T05:05:00.791Z,0
2017-01-20T05:06:12.390Z,0
2017-01-20T05:07:23.983Z,0
2017-01-20T05:08:35.431Z,0
2017-01-20T05:09:46.834Z,0
2017-01-20T05:10:58.426Z,0
2017-01-20T05:12:09.827Z,0
2017-01-20T05:13:21.452Z,0
2017-01-20T05:14:32.892Z,0
2017-01-20T05:15:44.298Z,0
2017-01-20T05:16:55.692Z,0
2017-01-20T05:18:07.085Z,0
2017-01-20T05:19:18.480Z,0
2017-01-20T05:20:29.957Z,0
2017-01-20T05:21:41.547Z,0
2017-01-20T05:22:52.936Z,0
2017-01-20T05:24:04.335Z,0
2017-01-20T05:25:15.926Z,0
2017-01-20T05:26:27.371Z,0
2017-01-20T05:27:38.769Z,0
2017-01-20T05:28:50.160Z,0
2017-01-20T05:30:01.758Z,0
2017-01-20T05:31:13.150Z,0
2017-01-20T05:32:24.612Z,0
2017-01-20T05:33:35.996Z,0
2017-01-20T05:34:47.592Z,0
2017-01-20T05:35:59.186Z,0
2017-01-20T05:37:10.985Z,0
2017-01-20T05:38:22.428Z,0
2017-01-20T05:39:33.828Z,0
2017-01-20T05:40:45.426Z,0
2017-01-20T05:41:57.034Z,0
2017-01-20T05:43:08.426Z,0
2017-01-20T05:44:19.872Z,0
2017-01-20T05:45:31.272Z,0
2017-01-20T05:46:43.072Z,0
2017-01-20T05:47:54.459Z,0
2017-01-20T05:49:05.858Z,0
2017-01-20T05:50:17.306Z,0
2017-01-20T05:51:28.705Z,0
2017-01-20T05:52:40.102Z,0
2017-01-20T05:53:51.501Z,0
2017-01-20T05:55:02.896Z,0
2017-01-20T05:56:14.539Z,0
2017-01-20T05:57:25.938Z,0
2017-01-20T05:58:37.338Z,0
2017-01-20T05:59:48.755Z,0
2017-01-20T06:01:00.149Z,0
2017-01-20T06:02:11.594Z,0
2017-01-20T06:03:22.991Z,0
2017-01-20T06:04:34.383Z,0
2017-01-20T06:05:45.780Z,0
2017-01-20T06:06:57.374Z,0
2017-01-20T06:08:08.816Z,0
2017-01-20T06:09:20.403Z,0
2017-01-20T06:10:31.796Z,0
2017-01-20T06:11:43.400Z,0
2017-01-20T06:12:54.792Z,0
2017-01-20T06:14:06.249Z,0
2017-01-20T06:15:17.848Z,0
2017-01-20T06:16:29.244Z,0
2017-01-20T06:17:40.649Z,0
2017-01-20T06:18:52.044Z,0
2017-01-20T06:20:03.492Z,0
2017-01-20T06:21:15.087Z,0
2017-01-20T06:22:26.682Z,0
2017-01-20T06:23:38.074Z,0
2017-01-20T06:24:49.667Z,0
2017-01-20T06:26:01.113Z,0
2017-01-20T06:27:12.522Z,0
2017-01-20T06:28:24.315Z,0
2017-01-20T06:29:35.911Z,0
2017-01-20T06:30:47.298Z,0
2017-01-20T06:31:58.743Z,0
2017-01-20T06:33:10.182Z,0
2017-01-20T06:34:21.577Z,0
2017-01-20T06:35:33.177Z,0
2017-01-20T06:36:44.566Z,0
2017-01-20T06:37:56.009Z,0
2017-01-20T06:39:07.410Z,0
2017-01-20T06:40:19.005Z,0
2017-01-20T06:41:30.604Z,0
2017-01-20T06:42:42.011Z,0
2017-01-20T06:43:53.462Z,0
2017-01-20T06:45:04.856Z,0
2017-01-20T06:46:16.252Z,0
2017-01-20T06:47:27.649Z,0
2017-01-20T06:48:39.051Z,0
2017-01-20T06:49:50.499Z,0
2017-01-20T06:51:02.106Z,0
2017-01-20T06:52:13.505Z,0
2017-01-20T06:53:24.900Z,0
2017-01-20T06:54:36.294Z,0
2017-01-20T06:55:47.949Z,0
2017-01-20T06:56:59.346Z,0
2017-01-20T06:58:10.740Z,0
2017-01-20T06:59:22.332Z,0
2017-01-20T07:00:33.722Z,0
2017-01-20T07:01:45.173Z,0
2017-01-20T07:02:56.567Z,0
2017-01-20T07:04:07.962Z,0
2017-01-20T07:05:19.552Z,0
2017-01-20T07:06:30.936Z,0
2017-01-20T07:07:42.382Z,5
2017-01-20T07:08:53.795Z,5
2017-01-20T07:10:05.198Z,5
2017-01-20T07:11:16.592Z,5
2017-01-20T07:12:28.215Z,5
2017-01-20T07:13:39.659Z,5
2017-01-20T07:14:51.075Z,5
2017-01-20T07:16:02.479Z,5
2017-01-20T07:17:13.878Z,5
2017-01-20T07:18:25.271Z,10
2017-01-20T07:19:36.716Z,10
2017-01-20T07:20:48.111Z,10
2017-01-20T07:21:59.503Z,10
2017-01-20T07:23:10.889Z,10
2017-01-20T07:24:22.485Z,10
2017-01-20T07:25:33.935Z,10
2017-01-20T07:26:45.332Z,10
2017-01-20T07:27:56.726Z,10
2017-01-20T07:29:08.328Z,15
2017-01-20T07:30:19.755Z,15
2017-01-20T07:31:31.196Z,15
2017-01-20T07:32:42.579Z,20
2017-01-20T07:33:54.170Z,20
2017-01-20T07:35:05.568Z,20
2017-01-20T07:36:17.169Z,25
2017-01-20T07:37:28.611Z,25
2017-01-20T07:38:40.208Z,30
2017-01-20T07:39:51.601Z,30
2017-01-20T07:41:02.998Z,30
2017-01-20T07:42:14.403Z,35
2017-01-20T07:43:25.852Z,35
2017-01-20T07:44:37.248Z,40
2017-01-20T07:45:48.677Z,40
2017-01-20T07:47:00.070Z,40
2017-01-20T07:48:11.470Z,45
2017-01-20T07:49:22.914Z,45
2017-01-20T07:50:34.513Z,45
2017-01-20T07:51:46.111Z,45
2017-01-20T07:52:57.531Z,50
2017-01-20T07:54:08.925Z,55
2017-01-20T07:55:20.367Z,60
2017-01-20T07:56:31.761Z,65
2017-01-20T07:57:43.151Z,70
2017-01-20T07:58:54.529Z,75
2017-01-20T08:00:05.926Z,80
2017-01-20T08:01:17.576Z,80
2017-01-20T08:02:29.176Z,85
2017-01-20T08:03:40.567Z,90
2017-01-20T08:04:52.174Z,90
2017-01-20T08:06:03.599Z,95
2017-01-20T08:07:15.042Z,100
2017-01-20T08:08:26.468Z,105
2017-01-20T08:09:37.859Z,110
2017-01-20T08:10:49.252Z,115
2017-01-20T08:12:00.645Z,120
2017-01-20T08:13:12.089Z,130
2017-01-20T08:14:23.529Z,135
2017-01-20T08:15:34.932Z,140
2017-01-20T08:16:46.328Z,145
2017-01-20T08:17:57.721Z,150
2017-01-20T08:19:09.177Z,155
2017-01-20T08:20:20.768Z,160
2017-01-20T08:21:32.163Z,165
2017-01-20T08:22:43.559Z,175
2017-01-20T08:23:54.984Z,180
2017-01-20T08:25:06.624Z,185
2017-01-20T08:26:18.418Z,195
2017-01-20T08:27:29.820Z,200
2017-01-20T08:28:41.212Z,210
2017-01-20T08:29:52.604Z,215
2017-01-20T08:31:04.452Z,225
2017-01-20T08:32:15.851Z,235
2017-01-20T08:33:27.240Z,240
2017-01-20T08:34:38.628Z,250
2017-01-20T08:35:50.043Z,255
2017-01-20T08:37:01.486Z,260
2017-01-20T08:38:12.884Z,270
2017-01-20T08:39:24.285Z,275
2017-01-20T08:40:35.696Z,275
2017-01-20T08:41:47.091Z,285
2017-01-20T08:42:58.531Z,295
2017-01-20T08:44:09.933Z,315
2017-01-20T08:45:21.529Z,330
2017-01-20T08:46:32.930Z,345
2017-01-20T08:47:44.332Z,370
2017-01-20T08:48:55.773Z,375
2017-01-20T08:50:07.175Z,375
2017-01-20T08:51:18.573Z,365
2017-01-20T08:52:30.172Z,350
2017-01-20T08:53:41.574Z,355
2017-01-20T08:54:53.023Z,440
2017-01-20T08:56:04.413Z,515
2017-01-20T08:57:16.010Z,535
2017-01-20T08:58:27.410Z,575
2017-01-20T08:59:38.807Z,630
2017-01-20T09:00:50.253Z,715
2017-01-20T09:02:01.853Z,790
2017-01-20T09:03:13.265Z,910
2017-01-20T09:04:24.662Z,955
2017-01-20T09:05:36.267Z,900
2017-01-20T09:06:47.721Z,855
2017-01-20T09:07:59.325Z,680
2017-01-20T09:09:10.724Z,570
2017-01-20T09:10:22.130Z,540
2017-01-20T09:11:33.557Z,515
2017-01-20T09:12:45.004Z,535
2017-01-20T09:13:56.405Z,565
2017-01-20T09:15:07.804Z,740
2017-01-20T09:16:19.211Z,925
2017-01-20T09:17:30.815Z,980
2017-01-20T09:18:42.261Z,1025
2017-01-20T09:19:53.685Z,1065
2017-01-20T09:21:05.088Z,955
2017-01-20T09:22:16.476Z,1000
2017-01-20T09:23:27.878Z,1125
2017-01-20T09:24:39.528Z,1290
2017-01-20T09:25:50.935Z,1010
2017-01-20T09:27:02.339Z,920
2017-01-20T09:28:13.746Z,1025
2017-01-20T09:29:25.146Z,1050
2017-01-20T09:30:36.598Z,1130
2017-01-20T09:31:48.003Z,1235
2017-01-20T09:32:59.406Z,1325
2017-01-20T09:34:11.019Z,1290
2017-01-20T09:35:22.423Z,1225
2017-01-20T09:36:33.885Z,1315
2017-01-20T09:37:45.321Z,1265
2017-01-20T09:38:56.731Z,1375
2017-01-20T09:40:08.577Z,1390
2017-01-20T09:41:20.384Z,1455
2017-01-20T09:42:31.841Z,1460
2017-01-20T09:43:43.252Z,1450
2017-01-20T09:44:54.654Z,1500
2017-01-20T09:46:06.066Z,1505
2017-01-20T09:47:17.468Z,1480
2017-01-20T09:48:28.917Z,1450
2017-01-20T09:49:40.323Z,1485
2017-01-20T09:50:51.942Z,1400
2017-01-20T09:52:03.354Z,1295
2017-01-20T09:53:14.765Z,1275
2017-01-20T09:54:26.223Z,1160
2017-01-20T09:55:37.627Z,1240
2017-01-20T09:56:49.039Z,1285
2017-01-20T09:58:00.654Z,1305
2017-01-20T09:59:12.262Z,1385
2017-01-20T10:00:23.725Z,1355
2017-01-20T10:01:35.135Z,1330
2017-01-20T10:02:46.542Z,1210
2017-01-20T10:03:57.953Z,1120
2017-01-20T10:05:09.362Z,1120
2017-01-20T10:06:20.829Z,1170
2017-01-20T10:07:32.239Z,1210
2017-01-20T10:08:43.658Z,1085
2017-01-20T10:09:55.272Z,1195
2017-01-20T10:11:06.685Z,1425
2017-01-20T10:12:18.545Z,1500
2017-01-20T10:13:29.956Z,1595
2017-01-20T10:14:41.364Z,1545
2017-01-20T10:15:52.992Z,1490
2017-01-20T10:17:04.412Z,1420
2017-01-20T10:18:15.867Z,1290
2017-01-20T10:19:27.275Z,1365
2017-01-20T10:20:38.686Z,1305
2017-01-20T10:21:50.104Z,1420
2017-01-20T10:23:01.509Z,1250
2017-01-20T10:24:13.168Z,1335
2017-01-20T10:25:24.581Z,1375
2017-01-20T10:26:35.994Z,1420
2017-01-20T10:27:47.400Z,1455
2017-01-20T10:28:58.810Z,1390
2017-01-20T10:30:10.273Z,1350
2017-01-20T10:31:21.671Z,1420
2017-01-20T10:32:33.088Z,1580
2017-01-20T10:33:44.498Z,1515
2017-01-20T10:34:56.316Z,1420
2017-01-20T10:36:07.800Z,1535
2017-01-20T10:37:19.215Z,1610
2017-01-20T10:38:30.622Z,1675
2017-01-20T10:39:42.038Z,1560
2017-01-20T10:40:53.449Z,1465
2017-01-20T10:42:04.921Z,1590
2017-01-20T10:43:16.327Z,1440
2017-01-20T10:44:27.958Z,1540
2017-01-20T10:45:39.374Z,1450
2017-01-20T10:46:50.791Z,1335
2017-01-20T10:48:02.249Z,1235
2017-01-20T10:49:13.665Z,1110
2017-01-20T10:50:25.071Z,1140
2017-01-20T10:51:36.484Z,910
2017-01-20T10:52:48.098Z,835
2017-01-20T10:53:59.561Z,980
2017-01-20T10:55:10.976Z,1005
2017-01-20T10:56:22.393Z,1010
2017-01-20T10:57:33.804Z,1045
2017-01-20T10:58:45.414Z,1090
2017-01-20T10:59:57.282Z,1190
2017-01-20T11:01:08.692Z,1195
2017-01-20T11:02:20.104Z,1275
2017-01-20T11:03:31.540Z,1130
2017-01-20T11:04:42.948Z,1225
2017-01-20T11:05:54.408Z,1295
2017-01-20T11:07:05.822Z,1410
2017-01-20T11:08:17.232Z,1385
2017-01-20T11:09:28.647Z,1365
2017-01-20T11:10:40.061Z,1375
2017-01-20T11:11:51.524Z,1450
2017-01-20T11:13:02.927Z,1435
2017-01-20T11:14:14.328Z,1310
2017-01-20T11:15:26.136Z,1415
2017-01-20T11:16:37.547Z,1435
2017-01-20T11:17:49.006Z,1630
2017-01-20T11:19:00.422Z,1600
2017-01-20T11:20:11.849Z,1600
2017-01-20T11:21:23.257Z,1605
2017-01-20T11:22:34.665Z,1480
2017-01-20T11:23:46.121Z,1440
2017-01-20T11:24:57.542Z,1410
2017-01-20T11:26:08.953Z,1405
2017-01-20T11:27:20.364Z,1325
2017-01-20T11:28:31.789Z,1220
2017-01-20T11:29:43.252Z,1185
2017-01-20T11:30:54.666Z,1030
2017-01-20T11:32:06.078Z,1330
2017-01-20T11:33:17.490Z,1410
2017-01-20T11:34:29.107Z,1145
2017-01-20T11:35:40.773Z,845
2017-01-20T11:36:52.183Z,710
2017-01-20T11:38:03.593Z,825
2017-01-20T11:39:15.199Z,1140
2017-01-20T11:40:26.617Z,1075
2017-01-20T11:41:38.280Z,1030
2017-01-20T11:42:49.698Z,855
2017-01-20T11:44:01.112Z,835
2017-01-20T11:45:12.517Z,870
2017-01-20T11:46:23.926Z,910
2017-01-20T11:47:35.345Z,930
2017-01-20T11:48:46.755Z,815
2017-01-20T11:49:58.166Z,850
2017-01-20T11:51:09.578Z,705
2017-01-20T11:52:21.239Z,690
2017-01-20T11:53:32.648Z,805
2017-01-20T11:54:44.063Z,810
2017-01-20T11:55:55.663Z,795
2017-01-20T11:57:07.071Z,810
2017-01-20T11:58:18.931Z,840
2017-01-20T11:59:30.336Z,865
2017-01-20T12:00:41.744Z,780
2017-01-20T12:01:53.148Z,820
2017-01-20T12:03:04.753Z,870
2017-01-20T12:04:16.212Z,850
2017-01-20T12:05:27.626Z,945
2017-01-20T12:06:39.236Z,1045
2017-01-20T12:07:50.635Z,1040
2017-01-20T12:09:02.246Z,1045
2017-01-20T12:10:13.707Z,1105
2017-01-20T12:11:25.320Z,1105
2017-01-20T12:12:36.737Z,1015
2017-01-20T12:13:48.146Z,845
2017-01-20T12:14:59.582Z,750
2017-01-20T12:16:11.033Z,620
2017-01-20T12:17:22.647Z,555
2017-01-20T12:18:34.057Z,500
2017-01-20T12:19:45.468Z,430
2017-01-20T12:20:56.909Z,460
2017-01-20T12:22:08.372Z,520
2017-01-20T12:23:19.784Z,605
2017-01-20T12:24:31.190Z,500
2017-01-20T12:25:42.598Z,600
2017-01-20T12:26:54.209Z,680
2017-01-20T12:28:05.700Z,750
2017-01-20T12:29:17.110Z,705
2017-01-20T12:30:28.519Z,680
2017-01-20T12:31:39.928Z,680
2017-01-20T12:32:51.335Z,730
2017-01-20T12:34:02.797Z,725
2017-01-20T12:35:14.200Z,695
2017-01-20T12:36:25.598Z,735
2017-01-20T12:37:37.005Z,605
2017-01-20T12:38:48.415Z,425
2017-01-20T12:40:00.107Z,585
2017-01-20T12:41:11.521Z,750
2017-01-20T12:42:22.957Z,760
2017-01-20T12:43:34.358Z,715
2017-01-20T12:44:45.769Z,545
2017-01-20T12:45:57.222Z,475
2017-01-20T12:47:08.634Z,595
2017-01-20T12:48:20.042Z,725
2017-01-20T12:49:31.659Z,730
2017-01-20T12:50:43.067Z,735
2017-01-20T12:51:54.520Z,790
2017-01-20T12:53:05.923Z,750
2017-01-20T12:54:17.532Z,780
2017-01-20T12:55:28.948Z,780
2017-01-20T12:56:40.361Z,775
2017-01-20T12:57:52.032Z,695
2017-01-20T12:59:03.439Z,695
2017-01-20T13:00:15.051Z,770
2017-01-20T13:01:26.461Z,730
2017-01-20T13:02:37.872Z,630
2017-01-20T13:03:49.343Z,650
2017-01-20T13:05:00.756Z,640
2017-01-20T13:06:12.171Z,575
2017-01-20T13:07:23.575Z,590
2017-01-20T13:08:34.978Z,685
2017-01-20T13:09:46.438Z,670
2017-01-20T13:10:57.843Z,585
2017-01-20T13:12:09.254Z,500
2017-01-20T13:13:20.863Z,420
2017-01-20T13:14:32.292Z,460
2017-01-20T13:15:43.742Z,365
2017-01-20T13:16:55.154Z,440
2017-01-20T13:18:06.760Z,480
2017-01-20T13:19:18.171Z,385
2017-01-20T13:20:29.599Z,315
2017-01-20T13:21:41.054Z,370
2017-01-20T13:22:52.461Z,385
2017-01-20T13:24:03.868Z,350
2017-01-20T13:25:15.276Z,370
2017-01-20T13:26:26.886Z,375
2017-01-20T13:27:38.343Z,370
2017-01-20T13:28:49.951Z,365
2017-01-20T13:30:01.355Z,405
2017-01-20T13:31:12.776Z,430
2017-01-20T13:32:24.382Z,420
2017-01-20T13:33:35.838Z,395
2017-01-20T13:34:47.240Z,380
2017-01-20T13:35:58.651Z,365
2017-01-20T13:37:10.052Z,330
2017-01-20T13:38:21.483Z,340
2017-01-20T13:39:32.940Z,290
2017-01-20T13:40:44.339Z,275
2017-01-20T13:41:55.755Z,315
2017-01-20T13:43:07.161Z,300
2017-01-20T13:44:18.565Z,305
2017-01-20T13:45:30.024Z,310
2017-01-20T13:46:41.439Z,290
2017-01-20T13:47:53.057Z,290
2017-01-20T13:49:04.498Z,295
2017-01-20T13:50:16.101Z,275
2017-01-20T13:51:27.585Z,250
2017-01-20T13:52:38.994Z,230
2017-01-20T13:53:50.411Z,275
2017-01-20T13:55:01.813Z,290
2017-01-20T13:56:13.223Z,240
2017-01-20T13:57:24.684Z,225
2017-01-20T13:58:36.298Z,215
2017-01-20T13:59:47.706Z,215
2017-01-20T14:00:59.110Z,190
2017-01-20T14:02:10.510Z,165
2017-01-20T14:03:21.970Z,160
2017-01-20T14:04:33.374Z,160
2017-01-20T14:05:44.983Z,160
2017-01-20T14:06:56.395Z,185
2017-01-20T14:08:07.810Z,205
2017-01-20T14:09:19.265Z,195
2017-01-20T14:10:30.671Z,175
2017-01-20T14:11:42.074Z,165
2017-01-20T14:12:53.474Z,165
2017-01-20T14:14:04.875Z,160
2017-01-20T14:15:16.328Z,160
2017-01-20T14:16:27.731Z,155
2017-01-20T14:17:39.127Z,155
2017-01-20T14:18:50.947Z,155
2017-01-20T14:20:02.349Z,150
2017-01-20T14:21:13.804Z,150
2017-01-20T14:22:25.204Z,145
2017-01-20T14:23:36.613Z,145
2017-01-20T14:24:48.220Z,140
2017-01-20T14:25:59.623Z,145
2017-01-20T14:27:11.101Z,140
2017-01-20T14:28:22.508Z,140
2017-01-20T14:29:33.906Z,140
2017-01-20T14:30:45.508Z,140
2017-01-20T14:31:56.908Z,140
2017-01-20T14:33:08.359Z,140
2017-01-20T14:34:19.771Z,140
2017-01-20T14:35:31.200Z,135
2017-01-20T14:36:42.806Z,130
2017-01-20T14:37:54.212Z,130
2017-01-20T14:39:05.862Z,125
2017-01-20T14:40:17.260Z,120
2017-01-20T14:41:28.658Z,115
2017-01-20T14:42:40.060Z,120
2017-01-20T14:43:51.489Z,115
2017-01-20T14:45:02.938Z,115
2017-01-20T14:46:14.342Z,115
2017-01-20T14:47:25.747Z,110
2017-01-20T14:48:37.146Z,110
2017-01-20T14:49:48.550Z,105
2017-01-20T14:51:00.032Z,110
2017-01-20T14:52:11.439Z,115
2017-01-20T14:53:22.839Z,110
2017-01-20T14:54:34.445Z,105
2017-01-20T14:55:45.858Z,100
2017-01-20T14:56:57.312Z,100
2017-01-20T14:58:08.723Z,95
2017-01-20T14:59:20.130Z,95
2017-01-20T15:00:31.552Z,90
2017-01-20T15:01:42.962Z,90
2017-01-20T15:02:54.420Z,90
2017-01-20T15:04:05.825Z,90
2017-01-20T15:05:17.229Z,90
2017-01-20T15:06:28.625Z,90
2017-01-20T15:07:40.030Z,85
2017-01-20T15:08:51.477Z,85
2017-01-20T15:10:02.891Z,80
2017-01-20T15:11:14.290Z,80
2017-01-20T15:12:25.695Z,80
2017-01-20T15:13:37.297Z,75
2017-01-20T15:14:48.747Z,75
2017-01-20T15:16:00.148Z,75
2017-01-20T15:17:11.551Z,75
2017-01-20T15:18:23.169Z,70
2017-01-20T15:19:34.574Z,65
2017-01-20T15:20:46.025Z,60
2017-01-20T15:21:57.618Z,60
2017-01-20T15:23:09.224Z,55
2017-01-20T15:24:20.625Z,55
2017-01-20T15:25:32.030Z,50
2017-01-20T15:26:43.488Z,50
2017-01-20T15:27:54.890Z,45
2017-01-20T15:29:06.290Z,40
2017-01-20T15:30:17.684Z,40
2017-01-20T15:31:29.286Z,35
2017-01-20T15:32:40.736Z,35
2017-01-20T15:33:52.142Z,35
2017-01-20T15:35:03.751Z,30
2017-01-20T15:36:15.153Z,30
2017-01-20T15:37:26.559Z,30
2017-01-20T15:38:38.012Z,25
2017-01-20T15:39:49.403Z,25
2017-01-20T15:41:00.808Z,25
2017-01-20T15:42:12.614Z,25
2017-01-20T15:43:24.017Z,20
2017-01-20T15:44:35.473Z,20
2017-01-20T15:45:46.870Z,20
2017-01-20T15:46:58.283Z,20
2017-01-20T15:48:09.710Z,15
2017-01-20T15:49:21.308Z,15
2017-01-20T15:50:32.965Z,15
2017-01-20T15:51:44.374Z,15
2017-01-20T15:52:55.782Z,10
2017-01-20T15:54:07.389Z,10
2017-01-20T15:55:18.791Z,10
2017-01-20T15:56:30.240Z,10
2017-01-20T15:57:41.646Z,10
2017-01-20T15:58:53.038Z,5
2017-01-20T16:00:04.661Z,5
2017-01-20T16:01:16.267Z,5
2017-01-20T16:02:27.712Z,5
2017-01-20T16:03:39.118Z,5
2017-01-20T16:04:50.544Z,5
2017-01-20T16:06:02.145Z,5
2017-01-20T16:07:13.541Z,0
2017-01-20T16:08:24.989Z,0
2017-01-20T16:09:36.394Z,0
2017-01-20T16:10:47.802Z,0
2017-01-20T16:11:59.207Z,0
2017-01-20T16:13:10.638Z,0
2017-01-20T16:14:22.083Z,0
2017-01-20T16:15:33.491Z,0
2017-01-20T16:16:44.892Z,0
2017-01-20T16:17:56.287Z,0
2017-01-20T16:19:07.683Z,0
2017-01-20T16:20:19.142Z,0
2017-01-20T16:21:30.549Z,0
2017-01-20T16:22:42.171Z,0
2017-01-20T16:23:53.567Z,0
2017-01-20T16:25:04.969Z,0
2017-01-20T16:26:16.421Z,0
2017-01-20T16:27:27.819Z,0
2017-01-20T16:28:39.256Z,0
2017-01-20T16:29:50.648Z,0
2017-01-20T16:31:02.047Z,0
2017-01-20T16:32:13.700Z,0
2017-01-20T16:33:25.095Z,0
2017-01-20T16:34:36.486Z,0
2017-01-20T16:35:47.884Z,0
2017-01-20T16:36:59.288Z,0
2017-01-20T16:38:10.734Z,0
2017-01-20T16:39:22.143Z,0
2017-01-20T16:40:33.546Z,0
2017-01-20T16:41:44.948Z,0
2017-01-20T16:42:56.552Z,0
2017-01-20T16:44:08.003Z,0
2017-01-20T16:45:19.408Z,0
2017-01-20T16:46:30.819Z,0
2017-01-20T16:47:42.240Z,0
2017-01-20T16:48:53.649Z,0
2017-01-20T16:50:05.105Z,0
2017-01-20T16:51:16.501Z,0
2017-01-20T16:52:28.104Z,0
2017-01-20T16:53:39.505Z,0
2017-01-20T16:54:50.908Z,0
2017-01-20T16:56:02.358Z,0